Time;durP1;ratioP1;P1;durP2;ratioP2;P2;SDS_P1;SDS_P2;PMS_P1;PMS_P2;Temp;Humidity;BMP_temperature;BMP_pressure;BME280_temperature;BME280_humidity;BME280_pressure;Samples;Min_cycle;Max_cycle;Signal;HPM_P1;HPM_P2
2021/03/09 00:00:20;;;;;;;86.90;34.88;;;;;;;-3.28;67.48;99317.59;2198536;80;21640;-87
2021/03/09 00:03:24;;;;;;;100.72;37.15;;;;;;;-3.29;67.65;99310.79;2207466;80;21104;-86
2021/03/09 00:06:25;;;;;;;139.97;50.15;;;;;;;-3.25;67.64;99315.70;2202217;80;21339;-86
2021/03/09 00:09:27;;;;;;;136.32;49.58;;;;;;;-3.27;67.58;99311.11;2197510;80;21350;-89
2021/03/09 00:12:28;;;;;;;131.93;48.80;;;;;;;-3.25;67.53;99311.02;2199099;80;21345;-85
2021/03/09 00:15:30;;;;;;;148.53;56.18;;;;;;;-3.27;67.62;99303.88;2199598;80;21171;-87
2021/03/09 00:18:32;;;;;;;169.70;58.10;;;;;;;-3.28;67.70;99308.63;2196899;80;21737;-87
2021/03/09 00:21:33;;;;;;;185.25;64.53;;;;;;;-3.31;67.68;99309.59;2191656;80;21745;-86
2021/03/09 00:24:35;;;;;;;174.07;63.40;;;;;;;-3.37;67.63;99312.48;2200250;80;21217;-87
2021/03/09 00:27:36;;;;;;;122.95;46.60;;;;;;;-3.44;67.64;99313.69;2203785;80;21372;-87
2021/03/09 00:30:38;;;;;;;116.55;42.73;;;;;;;-3.46;67.80;99311.21;2203953;80;21321;-85
2021/03/09 00:33:40;;;;;;;149.50;51.63;;;;;;;-3.49;67.95;99307.50;2199801;80;21280;-85
2021/03/09 00:36:41;;;;;;;119.20;45.20;;;;;;;-3.52;67.85;99315.34;2198293;80;21361;-86
2021/03/09 00:39:43;;;;;;;100.07;39.30;;;;;;;-3.54;67.96;99324.02;2207451;80;21309;-86
2021/03/09 00:42:44;;;;;;;96.97;41.58;;;;;;;-3.55;68.03;99318.53;2202683;80;21296;-86
2021/03/09 00:45:46;;;;;;;99.00;38.88;;;;;;;-3.55;68.08;99313.41;2198581;80;21311;-86
2021/03/09 00:48:47;;;;;;;93.45;36.13;;;;;;;-3.55;68.12;99318.07;2193225;80;21165;-86
2021/03/09 00:51:49;;;;;;;87.57;35.70;;;;;;;-3.58;68.16;99314.81;2198435;80;21170;-86
2021/03/09 00:54:50;;;;;;;111.83;43.17;;;;;;;-3.59;68.24;99315.73;2193181;80;21329;-86
2021/03/09 00:57:55;;;;;;;100.72;38.40;;;;;;;-3.55;68.37;99312.12;2196299;80;21336;-86
2021/03/09 01:00:57;;;;;;;122.05;47.93;;;;;;;-3.55;68.16;99312.95;2195212;80;21327;-86
2021/03/09 01:03:58;;;;;;;121.87;48.58;;;;;;;-3.57;68.20;99312.63;2200933;80;21781;-87
2021/03/09 01:07:00;;;;;;;102.80;41.65;;;;;;;-3.60;68.12;99312.79;2193348;80;21167;-86
2021/03/09 01:10:01;;;;;;;100.02;40.65;;;;;;;-3.63;68.27;99308.66;2200974;80;21114;-87
2021/03/09 01:13:03;;;;;;;100.53;38.78;;;;;;;-3.66;68.23;99311.80;2201015;80;21313;-86
2021/03/09 01:16:04;;;;;;;92.45;37.90;;;;;;;-3.72;68.15;99307.37;2193319;80;21203;-86
2021/03/09 01:19:06;;;;;;;108.50;43.68;;;;;;;-3.74;68.15;99300.69;2203576;80;21323;-86
2021/03/09 01:22:07;;;;;;;192.28;69.87;;;;;;;-3.79;68.27;99300.08;2200969;80;21288;-86
2021/03/09 01:25:09;;;;;;;193.68;74.75;;;;;;;-3.83;68.02;99290.91;2195301;80;21334;-87
2021/03/09 01:28:10;;;;;;;223.45;80.95;;;;;;;-3.87;67.98;99295.78;2195763;80;21187;-87
2021/03/09 01:31:12;;;;;;;186.90;75.52;;;;;;;-3.97;68.19;99292.84;2197336;80;22303;-86
2021/03/09 01:34:13;;;;;;;212.65;78.28;;;;;;;-4.03;68.31;99290.11;2194808;80;21115;-85
2021/03/09 01:37:15;;;;;;;212.65;76.65;;;;;;;-4.09;68.30;99290.88;2198320;80;21321;-86
2021/03/09 01:40:16;;;;;;;234.45;84.72;;;;;;;-4.14;68.39;99292.37;2195954;80;21181;-85
2021/03/09 01:43:18;;;;;;;205.65;75.97;;;;;;;-4.15;68.55;99289.44;2196924;80;21770;-86
2021/03/09 01:46:19;;;;;;;177.27;66.53;;;;;;;-4.15;68.59;99286.05;2202382;80;21155;-86
2021/03/09 01:49:21;;;;;;;166.03;64.47;;;;;;;-4.15;68.54;99279.66;2206656;80;21177;-86
2021/03/09 01:52:23;;;;;;;168.22;61.68;;;;;;;-4.16;68.59;99278.83;2206734;80;21214;-85
2021/03/09 01:55:24;;;;;;;140.30;49.30;;;;;;;-4.19;68.67;99286.66;2194740;80;21346;-86
2021/03/09 01:58:26;;;;;;;115.62;42.73;;;;;;;-4.20;68.69;99281.62;2206773;80;21326;-86
2021/03/09 02:01:27;;;;;;;118.55;47.88;;;;;;;-4.21;68.66;99282.50;2209208;80;21245;-87
2021/03/09 02:04:29;;;;;;;123.53;46.53;;;;;;;-4.21;68.71;99282.50;2196780;80;21312;-87
2021/03/09 02:07:30;;;;;;;110.45;45.38;;;;;;;-4.20;68.85;99286.29;2203681;80;21200;-87
2021/03/09 02:10:32;;;;;;;126.27;43.70;;;;;;;-4.20;68.60;99293.96;2207213;80;21331;-87
2021/03/09 02:13:33;;;;;;;121.05;46.80;;;;;;;-4.22;68.77;99287.23;2201092;80;21131;-87
2021/03/09 02:16:35;;;;;;;99.15;41.18;;;;;;;-4.26;68.78;99292.96;2193516;80;21341;-87
2021/03/09 02:19:36;;;;;;;150.87;64.20;;;;;;;-4.39;68.72;99291.86;2193548;80;21313;-87
2021/03/09 02:22:38;;;;;;;110.80;46.50;;;;;;;-4.54;68.65;99287.48;2202862;80;22371;-86
2021/03/09 02:25:39;;;;;;;119.65;51.95;;;;;;;-4.59;69.20;99287.68;2204159;80;21176;-87
2021/03/09 02:28:41;;;;;;;129.03;52.08;;;;;;;-4.53;69.58;99282.30;2202772;80;21325;-86
2021/03/09 02:31:42;;;;;;;107.00;46.75;;;;;;;-4.44;69.51;99289.53;2202478;80;21183;-87
2021/03/09 02:34:44;;;;;;;108.20;44.20;;;;;;;-4.41;69.36;99287.28;2197834;80;21294;-87
2021/03/09 02:37:45;;;;;;;109.30;47.17;;;;;;;-4.35;69.31;99285.72;2197416;80;21272;-87
2021/03/09 02:40:48;;;;;;;92.82;40.83;;;;;;;-4.32;69.21;99286.39;2203351;80;21792;-87
2021/03/09 02:43:49;;;;;;;98.33;41.30;;;;;;;-4.30;69.13;99288.88;2198107;80;21153;-86
2021/03/09 02:46:51;;;;;;;95.25;42.93;;;;;;;-4.35;69.27;99284.45;2198687;80;21766;-87
2021/03/09 02:49:53;;;;;;;123.42;51.60;;;;;;;-4.32;69.47;99288.95;2195993;80;21181;-87
2021/03/09 02:52:55;;;;;;;135.55;54.20;;;;;;;-4.43;69.14;99289.09;2198957;80;21758;-86
2021/03/09 02:55:57;;;;;;;155.40;62.48;;;;;;;-4.56;69.37;99282.45;2198534;80;21328;-87
2021/03/09 02:58:58;;;;;;;155.40;60.90;;;;;;;-4.51;69.46;99285.60;2198717;80;21340;-86
2021/03/09 03:02:00;;;;;;;149.23;62.20;;;;;;;-4.50;69.25;99292.82;2193800;80;21320;-87
2021/03/09 03:05:02;;;;;;;155.72;62.75;;;;;;;-4.49;69.25;99295.30;2198814;80;21308;-87
2021/03/09 03:08:03;;;;;;;165.60;68.12;;;;;;;-4.53;69.28;99289.14;2198040;80;21166;-87
2021/03/09 03:11:05;;;;;;;162.68;63.75;;;;;;;-4.61;69.42;99293.31;2198369;80;21179;-87
2021/03/09 03:14:06;;;;;;;143.70;59.42;;;;;;;-4.62;69.58;99300.61;2203830;80;21333;-87
2021/03/09 03:17:08;;;;;;;144.30;56.95;;;;;;;-4.58;69.53;99297.00;2201169;80;21595;-87
2021/03/09 03:20:09;;;;;;;133.15;56.70;;;;;;;-4.58;69.40;99295.72;2206174;80;21996;-86
2021/03/09 03:23:11;;;;;;;142.40;59.13;;;;;;;-4.56;69.35;99303.34;2166584;80;21307;-86
2021/03/09 03:26:13;;;;;;;118.93;52.95;;;;;;;-4.56;69.30;99292.67;2159336;81;21361;-87
2021/03/09 03:29:14;;;;;;;133.87;54.15;;;;;;;-4.53;69.47;99298.08;2206258;80;21740;-85
2021/03/09 03:32:16;;;;;;;119.00;50.05;;;;;;;-4.51;69.61;99302.67;2170156;80;21301;-86
2021/03/09 03:35:17;;;;;;;106.10;46.42;;;;;;;-4.49;69.68;99295.75;2204165;80;21163;-86
2021/03/09 03:38:19;;;;;;;102.05;45.88;;;;;;;-4.47;69.69;99299.09;2193458;80;21307;-87
2021/03/09 03:41:20;;;;;;;105.43;46.45;;;;;;;-4.48;69.66;99302.52;2195984;80;21192;-87
2021/03/09 03:44:22;;;;;;;110.65;44.25;;;;;;;-4.50;69.56;99300.48;2200453;80;21153;-88
2021/03/09 03:47:23;;;;;;;100.47;41.75;;;;;;;-4.51;69.54;99304.77;2198712;80;21317;-87
2021/03/09 03:50:25;;;;;;;97.47;41.77;;;;;;;-4.50;69.52;99303.05;2199817;80;21340;-87
2021/03/09 03:53:26;;;;;;;100.65;40.28;;;;;;;-4.52;69.50;99305.67;2197099;80;21236;-86
2021/03/09 03:56:28;;;;;;;114.52;47.00;;;;;;;-4.54;69.35;99305.38;2197200;80;21312;-86
2021/03/09 03:59:29;;;;;;;103.53;44.50;;;;;;;-4.57;69.58;99306.35;2204770;80;21742;-85
2021/03/09 04:02:31;;;;;;;111.45;48.28;;;;;;;-4.56;69.54;99306.73;2207462;80;21742;-87
2021/03/09 04:05:33;;;;;;;100.78;45.15;;;;;;;-4.56;69.65;99301.62;2207330;80;21658;-86
2021/03/09 04:08:35;;;;;;;95.95;43.90;;;;;;;-4.54;69.70;99303.65;2203847;80;21627;-87
2021/03/09 04:11:36;;;;;;;97.95;41.50;;;;;;;-4.52;69.61;99309.96;2198350;80;21325;-87
2021/03/09 04:14:38;;;;;;;96.87;41.28;;;;;;;-4.52;69.62;99304.84;2206312;80;21298;-87
2021/03/09 04:17:39;;;;;;;90.12;40.40;;;;;;;-4.51;69.46;99310.34;2193724;80;21307;-87
2021/03/09 04:20:41;;;;;;;93.50;41.25;;;;;;;-4.53;69.62;99310.41;2202528;80;21746;-87
2021/03/09 04:23:42;;;;;;;91.57;40.70;;;;;;;-4.52;69.41;99303.12;2197551;80;21766;-88
2021/03/09 04:26:44;;;;;;;78.78;38.45;;;;;;;-4.54;69.47;99313.05;2193494;80;21174;-88
2021/03/09 04:29:45;;;;;;;85.53;40.67;;;;;;;-4.56;69.39;99308.45;2195770;80;21162;-87
2021/03/09 04:32:47;;;;;;;88.40;38.80;;;;;;;-4.58;69.30;99308.50;2201193;80;21322;-87
2021/03/09 04:35:48;;;;;;;81.17;39.05;;;;;;;-4.58;69.19;99300.83;2198354;80;21227;-89
2021/03/09 04:38:53;;;;;;;103.32;45.17;;;;;;;-4.62;69.10;99312.94;2193917;80;21305;-87
2021/03/09 04:41:55;;;;;;;106.78;45.48;;;;;;;-4.62;69.13;99298.05;2202819;80;21970;-85
2021/03/09 04:44:56;;;;;;;114.45;43.42;;;;;;;-4.60;69.12;99300.91;2201002;80;21328;-86
2021/03/09 04:47:58;;;;;;;120.55;49.10;;;;;;;-4.55;69.20;99306.28;2195355;80;21289;-86
2021/03/09 04:50:59;;;;;;;103.67;45.95;;;;;;;-4.51;69.00;99309.88;2197039;80;21319;-86
2021/03/09 04:54:01;;;;;;;117.57;47.73;;;;;;;-4.49;68.97;99313.19;2193190;80;21319;-87
2021/03/09 04:57:03;;;;;;;108.05;44.35;;;;;;;-4.49;68.90;99312.36;2193297;80;21321;-87
2021/03/09 05:00:04;;;;;;;87.08;38.90;;;;;;;-4.49;68.92;99302.97;2195693;80;21154;-87
2021/03/09 05:03:06;;;;;;;112.55;44.98;;;;;;;-4.41;68.93;99308.56;2193842;80;21303;-86
2021/03/09 05:06:07;;;;;;;112.80;42.33;;;;;;;-4.32;68.89;99314.52;2193354;80;21253;-88
2021/03/09 05:09:09;;;;;;;83.80;36.90;;;;;;;-4.38;68.94;99308.44;2196008;80;21363;-87
2021/03/09 05:12:10;;;;;;;84.47;35.55;;;;;;;-4.37;68.89;99309.27;2201314;80;21335;-87
2021/03/09 05:15:12;;;;;;;56.40;28.20;;;;;;;-4.32;69.16;99314.52;2193338;80;21328;-85
2021/03/09 05:18:13;;;;;;;74.72;31.70;;;;;;;-4.14;69.24;99315.84;2200006;80;21715;-87
2021/03/09 05:21:15;;;;;;;66.62;32.20;;;;;;;-4.03;69.17;99319.53;2202807;80;21296;-87
2021/03/09 05:24:17;;;;;;;61.45;29.65;;;;;;;-3.86;69.25;99311.50;2202759;80;21344;-88
2021/03/09 05:27:20;;;;;;;69.55;32.55;;;;;;;-3.72;69.19;99319.35;2204612;80;21144;-86
2021/03/09 05:30:21;;;;;;;59.93;30.15;;;;;;;-3.61;69.10;99322.66;2207500;80;21706;-88
2021/03/09 05:33:23;;;;;;;62.13;30.80;;;;;;;-3.51;69.04;99318.28;2196967;80;21304;-89
2021/03/09 05:36:24;;;;;;;72.75;31.60;;;;;;;-3.48;68.84;99323.23;2201883;80;21144;-89
2021/03/09 05:39:26;;;;;;;70.32;30.43;;;;;;;-3.54;68.78;99318.90;2205068;80;21276;-89
2021/03/09 05:42:27;;;;;;;64.32;30.08;;;;;;;-3.54;69.11;99312.50;2204938;80;21172;-88
2021/03/09 05:45:29;;;;;;;67.65;31.33;;;;;;;-3.37;69.34;99318.89;2202849;80;21787;-88
2021/03/09 05:48:31;;;;;;;73.00;32.65;;;;;;;-3.26;69.09;99323.01;2196344;80;21314;-89
2021/03/09 05:51:32;;;;;;;73.62;34.83;;;;;;;-3.12;69.28;99322.28;2205250;80;21212;-87
2021/03/09 05:54:34;;;;;;;72.80;36.00;;;;;;;-3.00;69.36;99324.23;2192388;80;21701;-87
2021/03/09 05:57:35;;;;;;;95.65;44.48;;;;;;;-2.90;69.13;99333.09;2177526;80;21124;-87
2021/03/09 06:00:37;;;;;;;230.52;86.20;;;;;;;-2.95;68.59;99331.22;2184917;79;21340;-86
2021/03/09 06:03:38;;;;;;;221.10;82.57;;;;;;;-3.02;68.71;99318.80;2166277;80;21839;-88
2021/03/09 06:06:40;;;;;;;167.22;71.85;;;;;;;-2.89;68.95;99320.66;2186359;81;21176;-88
2021/03/09 06:09:41;;;;;;;169.37;66.02;;;;;;;-2.86;69.18;99328.63;2182721;80;21734;-86
2021/03/09 06:12:42;;;;;;;148.70;63.40;;;;;;;-2.69;69.25;99330.31;2176974;80;21167;-86
2021/03/09 06:15:44;;;;;;;133.40;58.00;;;;;;;-2.69;69.08;99336.72;2164585;80;21269;-84
2021/03/09 06:18:49;;;;;;;113.10;51.02;;;;;;;-2.62;69.16;99338.88;2196548;79;21272;-85
2021/03/09 06:21:50;;;;;;;111.45;54.67;;;;;;;-2.42;69.58;99336.53;2196841;79;21293;-89
2021/03/09 06:24:51;;;;;;;235.43;122.60;;;;;;;-2.31;69.42;99343.64;2190700;80;21618;-88
2021/03/09 06:27:53;;;;;;;180.90;93.85;;;;;;;-2.10;69.55;99350.64;2194191;79;21299;-86
2021/03/09 06:30:55;;;;;;;89.52;44.27;;;;;;;-1.89;69.50;99352.47;2186103;79;21345;-86
2021/03/09 06:33:56;;;;;;;77.45;40.85;;;;;;;-1.83;69.32;99356.81;2186781;79;21532;-86
2021/03/09 06:36:58;;;;;;;75.80;46.00;;;;;;;-1.78;69.40;99353.52;2191795;79;21189;-86
2021/03/09 06:40:02;;;;;;;83.67;46.42;;;;;;;-1.63;69.66;99361.28;2200301;79;21306;-85
2021/03/09 06:43:03;;;;;;;71.50;43.63;;;;;;;-1.48;69.35;99360.39;2189866;79;21697;-84
2021/03/09 06:46:04;;;;;;;73.70;39.35;;;;;;;-1.42;69.11;99359.22;2198216;79;21589;-84
2021/03/09 06:49:06;;;;;;;54.42;31.12;;;;;;;-1.19;69.18;99357.41;2183267;80;21887;-86
2021/03/09 06:52:08;;;;;;;57.65;30.30;;;;;;;-0.99;68.98;99359.66;2198379;79;21125;-89
2021/03/09 06:55:10;;;;;;;59.30;30.90;;;;;;;-0.85;68.75;99362.67;2189300;79;21291;-88
2021/03/09 06:58:12;;;;;;;51.98;28.95;;;;;;;-0.75;68.88;99368.09;2192165;79;21240;-87
2021/03/09 07:01:14;;;;;;;57.43;30.85;;;;;;;-0.75;68.64;99365.52;2202668;79;21172;-89
2021/03/09 07:04:15;;;;;;;69.60;36.00;;;;;;;-0.64;68.45;99363.98;2204585;79;21577;-88
2021/03/09 07:07:17;;;;;;;55.78;30.35;;;;;;;-0.49;68.71;99369.09;2192142;79;21342;-86
2021/03/09 07:10:19;;;;;;;54.40;29.00;;;;;;;-0.31;68.69;99369.25;2185645;80;21740;-89
2021/03/09 07:13:20;;;;;;;51.50;28.87;;;;;;;-0.21;68.02;99375.47;2178695;80;21295;-86
2021/03/09 07:16:22;;;;;;;52.80;27.75;;;;;;;-0.14;68.30;99369.49;2190270;79;21190;-86
2021/03/09 07:19:24;;;;;;;49.65;28.92;;;;;;;-0.08;68.08;99372.98;2199377;78;21368;-85
2021/03/09 07:22:25;;;;;;;50.75;25.75;;;;;;;0.01;68.10;99377.55;2219450;78;21163;-86
2021/03/09 07:25:27;;;;;;;48.90;26.73;;;;;;;0.04;67.54;99376.52;2216954;78;21332;-84
2021/03/09 07:28:29;;;;;;;55.95;27.87;;;;;;;0.00;67.44;99375.91;2221740;78;21332;-88
2021/03/09 07:31:31;;;;;;;44.73;25.62;;;;;;;-0.15;67.50;99379.42;2183274;79;21787;-86
2021/03/09 07:34:32;;;;;;;83.60;41.00;;;;;;;-0.29;67.84;99378.98;2209765;78;21497;-85
2021/03/09 07:37:34;;;;;;;67.72;32.15;;;;;;;-0.41;68.03;99382.31;2220319;78;21606;-85
2021/03/09 07:40:37;;;;;;;58.92;29.87;;;;;;;-0.39;68.01;99387.73;2214106;78;21325;-85
2021/03/09 07:43:38;;;;;;;52.35;25.15;;;;;;;-0.38;68.06;99384.23;2216519;78;21336;-85
2021/03/09 07:46:40;;;;;;;43.23;21.65;;;;;;;-0.22;68.30;99385.41;2212696;78;21309;-85
2021/03/09 07:49:42;;;;;;;29.82;17.80;;;;;;;-0.07;68.01;99376.73;2214794;78;21280;-85
2021/03/09 07:52:43;;;;;;;34.05;17.17;;;;;;;0.04;67.67;99380.38;2222991;78;21163;-85
2021/03/09 07:55:45;;;;;;;33.05;18.42;;;;;;;0.18;67.42;99381.61;2218718;80;21324;-86
2021/03/09 07:58:47;;;;;;;22.93;14.58;;;;;;;0.39;67.45;99379.43;2220725;78;21158;-86
2021/03/09 08:01:48;;;;;;;25.02;14.23;;;;;;;0.51;66.53;99382.48;2217109;78;21776;-86
2021/03/09 08:04:50;;;;;;;20.52;13.65;;;;;;;0.70;66.73;99379.53;2214763;78;21282;-85
2021/03/09 08:07:51;;;;;;;23.73;13.65;;;;;;;0.79;65.71;99379.75;2214075;78;21288;-85
2021/03/09 08:10:53;;;;;;;24.30;12.53;;;;;;;0.88;64.28;99387.80;2217754;78;21171;-89
2021/03/09 08:13:55;;;;;;;25.45;12.98;;;;;;;0.76;64.71;99387.70;2210630;78;21789;-90
2021/03/09 08:16:56;;;;;;;21.02;12.05;;;;;;;0.83;65.54;99376.06;2208058;78;21309;-87
2021/03/09 08:19:58;;;;;;;21.23;11.38;;;;;;;0.93;64.65;99383.19;2220285;78;21369;-87
2021/03/09 08:23:00;;;;;;;28.95;14.45;;;;;;;0.89;64.37;99378.67;2220576;78;21305;-89
2021/03/09 08:26:01;;;;;;;22.27;13.35;;;;;;;0.97;64.39;99371.25;2214046;78;21290;-90
2021/03/09 08:29:22;;;;;;;31.50;16.17;;;;;;;1.07;64.36;99371.00;2218839;79;21340;-88
2021/03/09 08:32:24;;;;;;;28.23;15.88;;;;;;;1.20;64.79;99367.14;2216300;78;21817;-87
2021/03/09 08:35:25;;;;;;;33.65;17.10;;;;;;;1.38;64.52;99368.93;2201191;78;21317;-87
2021/03/09 08:38:27;;;;;;;25.60;14.20;;;;;;;1.50;63.75;99362.91;2188161;79;21317;-88
2021/03/09 08:41:31;;;;;;;30.37;16.25;;;;;;;1.52;63.18;99362.33;2191574;80;21180;-88
2021/03/09 08:44:33;;;;;;;36.17;17.42;;;;;;;1.57;63.07;99365.43;2198081;80;21325;-87
2021/03/09 08:47:34;;;;;;;27.02;14.00;;;;;;;1.54;63.04;99361.75;2184231;78;21362;-86
2021/03/09 08:50:41;;;;;;;42.15;16.50;;;;;;;1.57;62.78;99352.99;2175075;80;21141;-89
2021/03/09 08:53:43;;;;;;;32.15;16.27;;;;;;;1.65;63.23;99360.56;2174541;80;21787;-93
2021/03/09 08:56:45;;;;;;;28.45;14.68;;;;;;;1.78;63.03;99358.40;2179112;80;21834;-88
2021/03/09 08:59:46;;;;;;;20.32;11.90;;;;;;;1.84;62.39;99361.38;2175964;81;21211;-91
2021/03/09 09:02:49;;;;;;;23.60;11.75;;;;;;;1.88;62.69;99355.52;2191747;78;21415;-89
2021/03/09 09:05:51;;;;;;;19.95;10.93;;;;;;;1.94;62.06;99353.34;2199502;80;21374;-88
2021/03/09 09:09:00;;;;;;;18.65;11.78;;;;;;;1.93;61.30;99359.44;2216951;78;21325;-90
2021/03/09 09:12:15;;;;;;;20.88;12.07;;;;;;;1.96;61.85;99352.75;2150036;81;21729;-90
2021/03/09 09:15:25;;;;;;;19.85;10.55;;;;;;;2.07;61.08;99357.14;2174581;80;21591;-90
2021/03/09 09:18:27;;;;;;;19.95;10.13;;;;;;;2.18;61.18;99348.62;2182813;80;21812;-89
2021/03/09 09:21:28;;;;;;;16.73;9.85;;;;;;;2.31;60.76;99349.86;2174788;80;21618;-89
2021/03/09 09:24:30;;;;;;;13.95;8.40;;;;;;;2.40;60.53;99346.14;2159889;82;21310;-87
2021/03/09 09:27:31;;;;;;;12.68;7.80;;;;;;;2.47;59.70;99349.08;2169465;81;21307;-89
2021/03/09 09:30:33;;;;;;;11.15;6.65;;;;;;;2.51;57.62;99344.05;2167491;81;21164;-90
2021/03/09 09:33:34;;;;;;;11.80;6.55;;;;;;;2.53;58.27;99339.59;2242575;78;21274;-89
2021/03/09 09:36:36;;;;;;;13.10;6.97;;;;;;;2.53;58.03;99337.00;2256201;78;21278;-87
2021/03/09 09:39:38;;;;;;;14.50;7.00;;;;;;;2.61;58.57;99333.38;2213906;79;21273;-85
2021/03/09 09:42:39;;;;;;;10.30;5.97;;;;;;;2.75;57.55;99324.61;2242015;78;21578;-85
2021/03/09 09:45:41;;;;;;;12.20;6.47;;;;;;;2.80;57.21;99330.25;2229267;79;21339;-90
2021/03/09 09:48:42;;;;;;;11.65;6.05;;;;;;;2.88;57.40;99325.33;2234050;78;21324;-89
2021/03/09 09:51:45;;;;;;;10.35;5.25;;;;;;;2.89;57.12;99332.14;2234923;79;21307;-89
2021/03/09 09:54:47;;;;;;;9.48;5.70;;;;;;;2.94;57.10;99329.22;2227145;78;21761;-88
2021/03/09 09:57:48;;;;;;;8.88;4.87;;;;;;;3.03;56.35;99325.47;2229250;78;21336;-90
2021/03/09 10:00:50;;;;;;;11.95;5.05;;;;;;;3.05;55.59;99324.05;2233695;79;21320;-90
2021/03/09 10:03:52;;;;;;;22.52;16.90;;;;;;;3.12;55.11;99332.53;2228300;79;21720;-89
2021/03/09 10:06:53;;;;;;;11.45;5.90;;;;;;;3.20;54.74;99325.91;2237968;78;21145;-90
2021/03/09 10:09:55;;;;;;;11.12;6.00;;;;;;;3.35;55.10;99326.04;2243503;78;21292;-90
2021/03/09 10:12:57;;;;;;;9.80;5.17;;;;;;;3.46;53.99;99333.79;2251671;78;21325;-90
2021/03/09 10:15:58;;;;;;;9.95;6.12;;;;;;;3.62;53.57;99326.95;2240165;78;21681;-91
2021/03/09 10:19:00;;;;;;;7.55;4.55;;;;;;;3.82;53.47;99323.60;2243691;78;21143;-90
2021/03/09 10:22:03;;;;;;;8.23;5.28;;;;;;;4.02;51.95;99325.08;2238047;78;21617;-89
2021/03/09 10:25:05;;;;;;;8.88;4.90;;;;;;;4.25;52.08;99313.21;2246397;78;21153;-89
2021/03/09 10:28:07;;;;;;;3.85;2.80;;;;;;;4.48;50.09;99314.39;2253401;78;21599;-87
2021/03/09 10:31:08;;;;;;;11.63;4.85;;;;;;;4.65;48.66;99313.82;2246790;78;21332;-87
2021/03/09 10:34:10;;;;;;;3.92;2.80;;;;;;;4.84;50.54;99316.52;2247250;78;21629;-91
2021/03/09 10:37:12;;;;;;;6.90;3.77;;;;;;;5.07;47.24;99311.19;2256302;78;21301;-90
2021/03/09 10:40:13;;;;;;;2.58;1.95;;;;;;;5.14;46.11;99311.02;2251664;78;21280;-90
2021/03/09 10:43:15;;;;;;;2.47;1.25;;;;;;;5.09;47.23;99309.27;2247011;78;21301;-90
2021/03/09 10:46:18;;;;;;;2.40;1.67;;;;;;;5.01;45.37;99306.03;2242897;78;21662;-90
2021/03/09 10:49:20;;;;;;;1.98;1.32;;;;;;;4.94;46.86;99314.45;2248971;78;21635;-90
2021/03/09 10:52:21;;;;;;;1.37;0.88;;;;;;;4.84;46.32;99303.55;2247767;78;21131;-89
2021/03/09 10:55:23;;;;;;;3.02;1.47;;;;;;;4.74;45.39;99302.67;2233891;78;21273;-89
2021/03/09 10:58:24;;;;;;;1.62;1.50;;;;;;;4.69;45.39;99305.33;2256836;77;21189;-90
2021/03/09 11:01:26;;;;;;;2.30;1.87;;;;;;;4.72;45.56;99308.48;2239274;78;21116;-89
2021/03/09 11:04:27;;;;;;;2.50;1.72;;;;;;;4.73;44.05;99303.63;2231003;78;21756;-90
2021/03/09 11:07:29;;;;;;;3.25;2.50;;;;;;;4.73;43.68;99297.63;2230088;78;21327;-88
2021/03/09 11:10:30;;;;;;;4.05;2.62;;;;;;;4.56;41.79;99297.25;2231022;78;21205;-89
2021/03/09 11:13:32;;;;;;;5.75;2.90;;;;;;;4.53;42.88;99296.22;2243549;78;21261;-89
2021/03/09 11:16:33;;;;;;;4.70;2.95;;;;;;;4.50;41.45;99296.48;2259466;78;21136;-91
2021/03/09 11:19:35;;;;;;;2.45;2.22;;;;;;;4.44;40.66;99296.16;2163512;81;21163;-89
2021/03/09 11:22:36;;;;;;;4.17;2.12;;;;;;;4.36;40.01;99294.66;2161449;81;21352;-86
2021/03/09 11:25:38;;;;;;;4.25;2.35;;;;;;;4.22;39.96;99291.44;2142512;82;21816;-91
2021/03/09 11:28:39;;;;;;;2.83;2.40;;;;;;;4.17;40.66;99278.48;2139376;82;21793;-91
2021/03/09 11:31:42;;;;;;;2.77;2.50;;;;;;;4.27;39.96;99291.05;2141322;82;23244;-89
2021/03/09 11:34:43;;;;;;;9.13;3.35;;;;;;;4.19;39.40;99286.95;2149403;82;21314;-88
2021/03/09 11:37:45;;;;;;;4.67;2.55;;;;;;;4.06;40.45;99277.25;2161792;82;21800;-91
2021/03/09 11:40:46;;;;;;;3.12;2.60;;;;;;;4.00;39.58;99275.97;2160604;81;21641;-89
2021/03/09 11:43:48;;;;;;;3.33;2.35;;;;;;;4.05;40.23;99270.42;2160395;82;21304;-91
2021/03/09 11:46:49;;;;;;;6.03;2.85;;;;;;;3.91;40.12;99265.88;2166684;82;21155;-91
2021/03/09 11:49:51;;;;;;;4.33;2.65;;;;;;;4.04;40.40;99270.91;2144251;82;21332;-91
2021/03/09 11:52:52;;;;;;;3.35;2.37;;;;;;;4.10;40.84;99261.79;2177251;81;21185;-90
2021/03/09 11:55:54;;;;;;;2.45;2.25;;;;;;;4.21;40.41;99257.87;2181913;81;21217;-90
2021/03/09 11:58:56;;;;;;;3.72;2.55;;;;;;;4.22;40.31;99261.63;2183131;81;21347;-91
2021/03/09 12:01:57;;;;;;;5.50;2.55;;;;;;;4.28;40.71;99253.80;2179837;81;21732;-89
2021/03/09 12:04:59;;;;;;;2.47;2.08;;;;;;;4.39;39.79;99252.47;2184312;81;21328;-91
2021/03/09 12:08:01;;;;;;;3.95;2.45;;;;;;;4.41;39.47;99249.74;2185232;81;21308;-88
2021/03/09 12:11:03;;;;;;;3.47;3.17;;;;;;;4.39;40.12;99242.09;2184920;81;21325;-90
2021/03/09 12:14:04;;;;;;;2.67;2.37;;;;;;;4.44;39.96;99246.88;2190592;81;21349;-93
2021/03/09 12:17:06;;;;;;;4.97;2.85;;;;;;;4.43;40.16;99241.35;2213947;80;21748;-86
2021/03/09 12:20:07;;;;;;;6.28;2.98;;;;;;;4.40;40.20;99232.06;2213235;80;21292;-86
2021/03/09 12:23:09;;;;;;;11.95;4.62;;;;;;;4.44;39.84;99225.66;2176134;80;21307;-89
2021/03/09 12:26:11;;;;;;;4.22;2.75;;;;;;;4.50;40.24;99229.53;2197014;80;21317;-89
2021/03/09 12:29:12;;;;;;;3.55;2.77;;;;;;;4.56;40.63;99227.22;2190302;80;21340;-90
2021/03/09 12:32:14;;;;;;;4.75;2.75;;;;;;;4.64;39.86;99227.05;2211553;79;21123;-90
2021/03/09 12:35:15;;;;;;;4.03;3.20;;;;;;;4.58;39.36;99224.52;2198336;79;21738;-89
2021/03/09 12:38:17;;;;;;;5.22;2.70;;;;;;;4.49;39.32;99220.92;2173479;79;21794;-90
2021/03/09 12:41:18;;;;;;;6.35;4.00;;;;;;;4.52;40.22;99221.13;2169782;80;21235;-90
2021/03/09 12:44:19;;;;;;;3.10;2.67;;;;;;;4.62;40.26;99218.59;2170293;81;21180;-87
2021/03/09 12:47:21;;;;;;;4.85;3.50;;;;;;;4.70;39.38;99223.48;2171607;80;21653;-91
2021/03/09 12:50:23;;;;;;;3.60;2.95;;;;;;;4.59;38.43;99220.16;2187876;79;21207;-91
2021/03/09 12:53:24;;;;;;;5.45;3.25;;;;;;;4.45;39.20;99220.00;2246265;78;21160;-89
2021/03/09 12:56:26;;;;;;;6.85;3.95;;;;;;;4.46;38.88;99215.98;2245716;78;21262;-89
2021/03/09 12:59:27;;;;;;;9.95;5.72;;;;;;;4.44;38.27;99216.59;2255375;78;21285;-90
2021/03/09 13:02:29;;;;;;;4.28;3.25;;;;;;;4.40;39.08;99213.92;2248061;78;21298;-90
2021/03/09 13:05:30;;;;;;;8.55;4.60;;;;;;;4.43;38.24;99211.53;2244077;78;21654;-90
2021/03/09 13:08:33;;;;;;;5.25;3.47;;;;;;;4.34;36.80;99217.48;2246899;78;21278;-86
2021/03/09 13:11:35;;;;;;;4.05;3.50;;;;;;;4.08;38.16;99207.97;2253428;78;21288;-86
2021/03/09 13:14:37;;;;;;;5.05;3.83;;;;;;;3.91;38.48;99213.23;2249059;78;21178;-88
2021/03/09 13:17:42;;;;;;;7.05;4.85;;;;;;;3.73;38.96;99205.19;2249376;78;21245;-86
2021/03/09 13:20:44;;;;;;;6.83;3.62;;;;;;;3.59;38.79;99215.84;2240816;78;21303;-90
2021/03/09 13:23:45;;;;;;;7.17;4.12;;;;;;;3.44;39.37;99206.23;2244841;78;21300;-88
2021/03/09 13:26:47;;;;;;;5.25;3.42;;;;;;;3.33;39.23;99207.09;2238620;79;21308;-89
2021/03/09 13:29:48;;;;;;;7.37;4.05;;;;;;;3.21;39.50;99200.30;2236302;78;21356;-88
2021/03/09 13:32:51;;;;;;;9.53;5.08;;;;;;;3.12;39.84;99203.62;2246587;79;21162;-87
2021/03/09 13:35:53;;;;;;;13.95;6.25;;;;;;;3.18;40.07;99195.35;2249351;79;21282;-87
2021/03/09 13:38:54;;;;;;;7.22;5.10;;;;;;;3.16;40.08;99201.13;2243914;78;21339;-86
2021/03/09 13:41:56;;;;;;;8.68;4.45;;;;;;;3.13;40.17;99198.79;2236038;78;21295;-87
2021/03/09 13:44:58;;;;;;;6.75;4.45;;;;;;;3.17;39.97;99199.36;2228887;79;21301;-92
2021/03/09 13:47:59;;;;;;;9.08;4.53;;;;;;;3.08;39.94;99195.73;2238109;78;21154;-91
2021/03/09 13:51:02;;;;;;;10.50;6.17;;;;;;;2.94;40.46;99197.29;2231037;78;21328;-85
2021/03/09 13:54:04;;;;;;;12.90;5.80;;;;;;;2.90;40.22;99195.39;2228204;79;21313;-89
2021/03/09 13:57:07;;;;;;;10.95;4.42;;;;;;;2.80;40.44;99195.28;2233150;79;21304;-87
2021/03/09 14:00:08;;;;;;;8.78;5.67;;;;;;;2.76;40.83;99195.19;2230398;78;21682;-84